createdAt,value
2023-02-16T00:01:56.357Z,100448.19
2023-02-16T00:04:27.170Z,100448.03
2023-02-16T00:06:55.738Z,100447.25
2023-02-16T00:09:24.331Z,100444.61
2023-02-16T00:12:11.590Z,100441.91
2023-02-16T00:14:41.592Z,100438.55
2023-02-16T00:17:10.565Z,100441.00
2023-02-16T00:19:40.125Z,100443.17
2023-02-16T00:22:08.771Z,100440.80
2023-02-16T00:24:38.066Z,100440.67
2023-02-16T00:27:14.304Z,100437.65
2023-02-16T00:29:44.779Z,100436.81
2023-02-16T00:32:14.923Z,100435.80
2023-02-16T00:34:46.663Z,100439.64
2023-02-16T00:37:16.468Z,100434.70
2023-02-16T00:39:45.463Z,100438.16
2023-02-16T00:42:19.220Z,100436.08
2023-02-16T00:44:49.143Z,100433.09
2023-02-16T00:47:18.704Z,100431.33
2023-02-16T00:49:48.297Z,100429.27
2023-02-16T00:52:18.637Z,100428.79
2023-02-16T00:54:47.226Z,100430.95
2023-02-16T00:57:17.349Z,100428.91
2023-02-16T00:59:46.346Z,100417.11
2023-02-16T01:02:15.856Z,100422.59
2023-02-16T01:04:44.509Z,100414.51
2023-02-16T01:07:32.174Z,100413.77
2023-02-16T01:10:19.396Z,100415.58
2023-02-16T01:12:47.776Z,100409.67
2023-02-16T01:15:16.976Z,100397.18
2023-02-16T01:17:45.460Z,100406.05
2023-02-16T01:20:21.659Z,100406.30
2023-02-16T01:22:50.109Z,100408.11
2023-02-16T01:25:22.698Z,100409.88
2023-02-16T01:27:51.482Z,100413.23
2023-02-16T01:30:21.376Z,100409.46
2023-02-16T01:32:52.953Z,100409.23
2023-02-16T01:35:29.838Z,100410.52
2023-02-16T01:37:58.115Z,100411.70
2023-02-16T01:40:30.391Z,100412.36
2023-02-16T01:43:20.081Z,100411.27
2023-02-16T01:45:55.006Z,100415.48
2023-02-16T01:48:28.103Z,100415.43
2023-02-16T01:51:29.966Z,100414.68
2023-02-16T01:54:23.339Z,100412.91
2023-02-16T01:57:00.625Z,100411.98
2023-02-16T01:59:53.605Z,100411.84
2023-02-16T02:04:59.568Z,100422.52
2023-02-16T02:07:32.253Z,100420.51
2023-02-16T02:10:21.931Z,100407.42
2023-02-16T02:12:59.972Z,100413.13
2023-02-16T02:15:29.957Z,100416.24
2023-02-16T02:17:58.953Z,100416.56
2023-02-16T02:20:50.381Z,100419.48
2023-02-16T02:23:33.399Z,100423.05
2023-02-16T02:26:39.063Z,100420.61
2023-02-16T02:29:12.250Z,100419.98
2023-02-16T02:32:09.991Z,100418.17
2023-02-16T02:34:54.177Z,100417.77
2023-02-16T02:37:50.720Z,100415.73
2023-02-16T02:40:42.044Z,100412.11
2023-02-16T02:43:13.808Z,100409.71
2023-02-16T02:46:04.092Z,100409.02
2023-02-16T02:48:33.395Z,100406.00
2023-02-16T02:51:27.189Z,100403.67
2023-02-16T02:54:26.280Z,100406.75
2023-02-16T02:57:40.484Z,100407.53
2023-02-16T03:00:39.674Z,100409.20
2023-02-16T03:03:36.511Z,100407.49
2023-02-16T03:06:06.566Z,100407.73
2023-02-16T03:08:35.600Z,100410.28
2023-02-16T03:11:31.228Z,100410.17
2023-02-16T03:14:27.249Z,100405.85
2023-02-16T03:17:19.388Z,100409.09
2023-02-16T03:20:09.474Z,100403.32
2023-02-16T03:22:57.105Z,100405.64
2023-02-16T03:25:47.909Z,100404.52
2023-02-16T03:28:35.239Z,100401.88
2023-02-16T03:31:04.553Z,100401.02
2023-02-16T03:33:33.323Z,100397.97
2023-02-16T03:36:01.706Z,100396.41
2023-02-16T03:38:33.157Z,100394.31
2023-02-16T03:41:01.982Z,100389.25
2023-02-16T03:43:30.846Z,100389.07
2023-02-16T03:45:59.250Z,100384.55
2023-02-16T03:48:27.814Z,100380.83
2023-02-16T03:50:56.592Z,100371.09
2023-02-16T03:53:25.382Z,100368.50
2023-02-16T03:55:54.802Z,100366.83
2023-02-16T03:58:25.332Z,100367.27
2023-02-16T04:00:53.906Z,100364.46
2023-02-16T04:03:22.814Z,100366.27
2023-02-16T04:05:54.457Z,100364.95
2023-02-16T04:08:23.861Z,100365.89
2023-02-16T04:10:55.727Z,100361.50
2023-02-16T04:13:24.723Z,100357.03
2023-02-16T04:15:53.105Z,100354.81
2023-02-16T04:18:21.484Z,100350.80
2023-02-16T04:20:50.379Z,100351.16
2023-02-16T04:23:18.962Z,100345.80
2023-02-16T04:25:47.648Z,100342.14
2023-02-16T04:28:16.039Z,100339.13
2023-02-16T04:30:44.495Z,100334.50
2023-02-16T04:33:13.025Z,100332.63
2023-02-16T04:35:41.578Z,100333.34
2023-02-16T04:38:13.133Z,100332.83
2023-02-16T04:40:42.232Z,100330.27
2023-02-16T04:43:10.613Z,100328.98
2023-02-16T04:45:38.994Z,100329.51
2023-02-16T04:48:07.371Z,100329.53
2023-02-16T04:50:36.170Z,100326.02
2023-02-16T04:53:04.543Z,100329.03
2023-02-16T04:55:33.025Z,100326.16
2023-02-16T04:58:01.309Z,100327.44
2023-02-16T05:00:30.705Z,100323.63
2023-02-16T05:02:59.085Z,100324.64
2023-02-16T05:05:27.775Z,100325.65
2023-02-16T05:07:56.155Z,100322.30
2023-02-16T05:10:24.642Z,100321.42
2023-02-16T05:13:12.612Z,100321.17
2023-02-16T05:15:45.451Z,100294.77
2023-02-16T05:18:19.280Z,100325.08
2023-02-16T05:21:12.943Z,100322.17
2023-02-16T05:23:42.358Z,100324.20
2023-02-16T05:26:10.736Z,100322.93
2023-02-16T05:28:40.545Z,100319.00
2023-02-16T05:31:09.034Z,100318.44
2023-02-16T05:33:38.429Z,100316.79
2023-02-16T05:36:07.067Z,100317.52
2023-02-16T05:38:36.323Z,100316.46
2023-02-16T05:41:05.116Z,100315.68
2023-02-16T05:43:34.618Z,100316.44
2023-02-16T05:46:08.604Z,100318.58
2023-02-16T05:48:37.935Z,100320.16
2023-02-16T05:51:06.823Z,100322.27
2023-02-16T05:53:35.415Z,100323.33
2023-02-16T05:56:05.431Z,100324.23
2023-02-16T05:58:36.582Z,100324.16
2023-02-16T06:01:05.612Z,100328.50
2023-02-16T06:03:36.073Z,100316.44
2023-02-16T06:06:05.409Z,100320.17
2023-02-16T06:08:36.798Z,100326.67
2023-02-16T06:11:07.242Z,100326.54
2023-02-16T06:13:40.889Z,100325.38
2023-02-16T06:16:10.684Z,100327.35
2023-02-16T06:18:39.290Z,100322.32
2023-02-16T06:21:07.670Z,100322.54
2023-02-16T06:23:36.018Z,100322.96
2023-02-16T06:26:05.044Z,100323.43
2023-02-16T06:28:33.937Z,100328.95
2023-02-16T06:31:03.201Z,100326.64
2023-02-16T06:33:31.830Z,100324.94
2023-02-16T06:36:01.272Z,100323.05
2023-02-16T06:38:30.439Z,100317.42
2023-02-16T06:40:58.911Z,100319.34
2023-02-16T06:43:28.757Z,100319.80
2023-02-16T06:45:58.329Z,100318.04
2023-02-16T06:48:27.227Z,100317.04
2023-02-16T06:50:55.708Z,100312.88
2023-02-16T06:53:25.722Z,100310.45
2023-02-16T06:55:54.308Z,100309.15
2023-02-16T06:58:22.795Z,100310.09
2023-02-16T07:00:51.314Z,100299.75
2023-02-16T07:03:19.873Z,100303.73
2023-02-16T07:05:49.674Z,100304.44
2023-02-16T07:08:18.254Z,100302.65
2023-02-16T07:10:50.434Z,100301.13
2023-02-16T07:13:18.936Z,100295.39
2023-02-16T07:15:47.698Z,100289.80
2023-02-16T07:18:16.702Z,100283.59
2023-02-16T07:20:45.992Z,100278.19
2023-02-16T07:23:14.378Z,100280.97
2023-02-16T07:25:42.751Z,100275.98
2023-02-16T07:28:12.471Z,100275.14
2023-02-16T07:30:41.358Z,100278.63
2023-02-16T07:33:10.050Z,100277.02
2023-02-16T07:35:38.423Z,100273.43
2023-02-16T07:38:06.908Z,100270.16
2023-02-16T07:40:36.102Z,100266.83
2023-02-16T07:43:07.662Z,100268.17
2023-02-16T07:45:36.657Z,100266.29
2023-02-16T07:48:05.549Z,100258.95
2023-02-16T07:50:34.434Z,100261.53
2023-02-16T07:53:03.325Z,100262.56
2023-02-16T07:55:33.146Z,100260.39
2023-02-16T07:58:05.000Z,100256.13
2023-02-16T08:00:35.019Z,100257.38
2023-02-16T08:03:03.978Z,100256.30
2023-02-16T08:05:34.375Z,100255.52
2023-02-16T08:08:02.838Z,100252.52
2023-02-16T08:10:36.658Z,100251.61
2023-02-16T08:13:05.321Z,100248.36
2023-02-16T08:15:33.909Z,100246.45
2023-02-16T08:18:02.800Z,100241.77
2023-02-16T08:20:48.194Z,100244.59
2023-02-16T08:23:19.633Z,100242.58
2023-02-16T08:25:48.628Z,100242.80
2023-02-16T08:28:17.630Z,100241.40
2023-02-16T08:30:46.316Z,100240.28
2023-02-16T08:33:15.103Z,100238.94
2023-02-16T08:35:45.528Z,100236.27
2023-02-16T08:38:13.914Z,100235.73
2023-02-16T08:40:48.878Z,100235.70
2023-02-16T08:43:17.532Z,100234.95
2023-02-16T08:45:51.996Z,100234.35
2023-02-16T08:48:20.439Z,100236.48
2023-02-16T08:50:55.275Z,100243.03
2023-02-16T08:53:25.496Z,100240.08
2023-02-16T08:55:57.873Z,100238.89
2023-02-16T08:58:27.163Z,100242.21
2023-02-16T09:00:55.628Z,100238.83
2023-02-16T09:03:25.383Z,100239.30
2023-02-16T09:05:55.279Z,100237.90
2023-02-16T09:08:23.765Z,100235.27
2023-02-16T09:10:52.142Z,100237.29
2023-02-16T09:13:22.138Z,100234.21
2023-02-16T09:15:51.258Z,100229.75
2023-02-16T09:18:23.232Z,100229.02
2023-02-16T09:20:52.020Z,100224.39
2023-02-16T09:23:22.152Z,100223.52
2023-02-16T09:25:50.681Z,100222.23
2023-02-16T09:28:19.308Z,100218.73
2023-02-16T09:30:47.825Z,100216.33
2023-02-16T09:33:17.916Z,100207.02
2023-02-16T09:35:46.499Z,100207.17
2023-02-16T09:38:17.135Z,100206.48
2023-02-16T09:40:46.130Z,100208.00
2023-02-16T09:43:36.016Z,100205.45
2023-02-16T09:46:09.291Z,100201.88
2023-02-16T09:48:38.421Z,100197.86
2023-02-16T09:51:33.611Z,100198.23
2023-02-16T09:54:10.038Z,100194.62
2023-02-16T09:56:40.685Z,100192.02
2023-02-16T09:59:14.771Z,100189.06
2023-02-16T10:01:49.468Z,100191.55
2023-02-16T10:04:44.257Z,100183.80
2023-02-16T10:07:20.677Z,100180.33
2023-02-16T10:09:51.372Z,100177.69
2023-02-16T10:12:24.468Z,100178.56
2023-02-16T10:14:54.726Z,100172.19
2023-02-16T10:17:36.183Z,100169.31
2023-02-16T10:20:23.524Z,100166.94
2023-02-16T10:23:25.173Z,100158.88
2023-02-16T10:25:57.754Z,100155.46
2023-02-16T10:28:48.666Z,100150.80
2023-02-16T10:31:20.921Z,100149.48
2023-02-16T10:34:41.670Z,100146.86
2023-02-16T10:37:21.497Z,100139.02
2023-02-16T10:39:57.251Z,100130.19
2023-02-16T10:42:33.729Z,100131.16
2023-02-16T10:45:25.238Z,100126.83
2023-02-16T10:47:55.786Z,100125.92
2023-02-16T10:50:57.446Z,100124.77
2023-02-16T10:53:32.074Z,100120.43
2023-02-16T10:56:01.706Z,100113.58
2023-02-16T10:58:39.303Z,100111.17
2023-02-16T11:01:42.950Z,100112.11
2023-02-16T11:04:40.255Z,100108.45
2023-02-16T11:07:12.226Z,100105.77
2023-02-16T11:09:41.394Z,100099.39
2023-02-16T11:12:40.939Z,100092.05
2023-02-16T11:15:17.008Z,100089.10
2023-02-16T11:17:51.113Z,100084.76
2023-02-16T11:20:45.196Z,100078.38
2023-02-16T11:23:41.860Z,100070.16
2023-02-16T11:26:10.406Z,100070.19
2023-02-16T11:28:46.697Z,100059.21
2023-02-16T11:31:34.183Z,100056.98
2023-02-16T11:34:35.073Z,100047.60
2023-02-16T11:37:13.898Z,100040.55
2023-02-16T11:39:50.679Z,100035.45
2023-02-16T11:42:27.965Z,100032.11
2023-02-16T11:44:58.018Z,100027.21
2023-02-16T11:47:28.716Z,100023.48
2023-02-16T11:50:24.131Z,100021.66
2023-02-16T11:52:55.174Z,100017.17
2023-02-16T11:55:33.508Z,100011.91
2023-02-16T11:58:22.969Z,100008.32
2023-02-16T12:01:37.430Z,100002.39
2023-02-16T12:04:20.760Z,99999.45
2023-02-16T12:07:17.975Z,99990.05
2023-02-16T12:09:53.974Z,99985.52
2023-02-16T12:12:37.366Z,99988.85
2023-02-16T12:15:15.415Z,99984.81
2023-02-16T12:17:50.963Z,99990.50
2023-02-16T12:20:37.955Z,99989.96
2023-02-16T12:23:41.794Z,99984.73
2023-02-16T12:26:19.296Z,99977.58
2023-02-16T12:28:59.444Z,99983.17
2023-02-16T12:32:05.055Z,99978.19
2023-02-16T12:34:37.880Z,99974.89
2023-02-16T12:37:09.233Z,99970.80
2023-02-16T12:39:47.034Z,99966.13
2023-02-16T12:42:30.755Z,99963.49
2023-02-16T12:45:04.170Z,99961.20
2023-02-16T12:47:37.061Z,99957.50
2023-02-16T12:50:28.177Z,99955.89
2023-02-16T12:53:17.747Z,99950.84
2023-02-16T12:55:57.083Z,99948.25
2023-02-16T12:58:42.800Z,99944.63
2023-02-16T13:01:14.932Z,99947.30
2023-02-16T13:03:51.065Z,99941.36
2023-02-16T13:06:44.986Z,99939.39
2023-02-16T13:09:34.360Z,99932.58
2023-02-16T13:12:31.723Z,99924.73
2023-02-16T13:15:14.418Z,99917.92
2023-02-16T13:18:01.256Z,99919.89
2023-02-16T13:20:33.224Z,99918.84
2023-02-16T13:23:13.491Z,99916.12
2023-02-16T13:25:57.263Z,99915.02
2023-02-16T13:29:00.914Z,99912.16
2023-02-16T13:31:56.596Z,99907.30
2023-02-16T13:34:38.656Z,99903.94
2023-02-16T13:37:58.551Z,99901.59
2023-02-16T13:40:45.968Z,99895.34
2023-02-16T13:43:30.432Z,99894.13
2023-02-16T13:45:59.562Z,99891.53
2023-02-16T13:48:33.639Z,99890.64
2023-02-16T13:51:04.513Z,99890.79
2023-02-16T13:53:38.954Z,99885.06
2023-02-16T13:56:23.595Z,99881.69
2023-02-16T13:58:53.065Z,99876.66
2023-02-16T14:01:39.783Z,99881.11
2023-02-16T14:04:32.317Z,99882.44
2023-02-16T14:07:01.532Z,99877.45
2023-02-16T14:09:39.359Z,99874.23
2023-02-16T14:12:32.203Z,99873.95
2023-02-16T14:15:05.507Z,99866.48
2023-02-16T14:17:35.190Z,99869.90
2023-02-16T14:22:21.403Z,99867.95
2023-02-16T14:24:53.426Z,99862.63
2023-02-16T14:27:41.514Z,99856.92
2023-02-16T14:30:27.194Z,99859.26
2023-02-16T14:33:15.869Z,99854.51
2023-02-16T14:36:14.340Z,99852.80
2023-02-16T14:38:41.802Z,99850.14
2023-02-16T14:41:25.539Z,99846.08
2023-02-16T14:44:25.437Z,99842.30
2023-02-16T14:47:15.140Z,99841.02
2023-02-16T14:49:56.842Z,99834.83
2023-02-16T14:52:45.490Z,99830.32
2023-02-16T14:55:25.751Z,99830.11
2023-02-16T14:58:03.757Z,99828.91
2023-02-16T15:00:53.440Z,99828.95
2023-02-16T15:03:22.248Z,99825.21
2023-02-16T15:05:57.469Z,99828.30
2023-02-16T15:08:34.767Z,99827.55
2023-02-16T15:11:11.896Z,99822.21
2023-02-16T15:13:42.474Z,99818.86
2023-02-16T15:16:13.293Z,99814.11
2023-02-16T15:18:47.256Z,99813.17
2023-02-16T15:21:22.671Z,99809.20
2023-02-16T15:23:52.750Z,99811.59
2023-02-16T15:26:25.678Z,99807.96
2023-02-16T15:29:00.524Z,99808.01
2023-02-16T15:31:36.423Z,99803.54
2023-02-16T15:34:13.250Z,99798.78
2023-02-16T15:36:43.115Z,99794.52
2023-02-16T15:39:48.447Z,99794.76
2023-02-16T15:42:21.603Z,99789.23
2023-02-16T15:44:49.064Z,99787.76
2023-02-16T15:47:21.673Z,99783.10
2023-02-16T15:49:48.998Z,99779.88
2023-02-16T15:52:25.364Z,99781.63
2023-02-16T15:54:52.198Z,99779.47
2023-02-16T15:57:36.257Z,99774.58
2023-02-16T18:23:01.049Z,99633.23
2023-02-16T18:25:29.678Z,99632.61
2023-02-16T18:27:59.073Z,99629.79
2023-02-16T18:30:27.667Z,99628.02
2023-02-16T18:32:56.859Z,99624.21
2023-02-16T18:35:25.446Z,99626.77
2023-02-16T18:37:54.656Z,99625.39
2023-02-16T18:40:23.335Z,99621.67
2023-02-16T18:42:52.536Z,99625.17
2023-02-16T18:45:20.918Z,99624.45
2023-02-16T18:47:50.013Z,99620.20
2023-02-16T18:50:18.394Z,99617.23
2023-02-16T18:52:47.497Z,99615.54
2023-02-16T18:55:16.599Z,99614.34
2023-02-16T18:57:44.977Z,99611.85
2023-02-16T19:00:15.000Z,99610.61
2023-02-16T19:02:43.474Z,99607.29
2023-02-16T19:05:11.852Z,99603.96
2023-02-16T19:07:40.441Z,99604.71
2023-02-16T19:10:12.308Z,99599.68
2023-02-16T19:12:40.896Z,99600.98
2023-02-16T19:15:09.899Z,99595.59
2023-02-16T19:17:39.392Z,99590.98
2023-02-16T19:20:11.885Z,99595.13
2023-02-16T19:22:40.451Z,99589.90
2023-02-16T19:25:09.242Z,99588.27
2023-02-16T19:27:37.722Z,99586.75
2023-02-16T19:30:07.291Z,99580.52
2023-02-16T19:32:35.826Z,99576.33
2023-02-16T19:35:05.122Z,99573.98
2023-02-16T19:37:34.111Z,99569.91
2023-02-16T19:40:03.205Z,99567.26
2023-02-16T19:42:31.692Z,99564.20
2023-02-16T19:45:00.373Z,99565.31
2023-02-16T19:47:28.960Z,99563.06
2023-02-16T19:49:57.756Z,99558.38
2023-02-16T19:52:26.237Z,99555.77
2023-02-16T19:54:54.924Z,99546.94
2023-02-16T19:57:23.621Z,99545.74
2023-02-16T19:59:51.993Z,99545.77
2023-02-16T20:02:20.504Z,99542.27
2023-02-16T20:04:48.856Z,99536.41
2023-02-16T20:07:19.288Z,99534.10
2023-02-16T20:09:48.385Z,99526.09
2023-02-16T20:12:16.772Z,99527.27
2023-02-16T20:14:46.480Z,99525.40
2023-02-16T20:17:15.586Z,99524.25
2023-02-16T20:19:44.371Z,99526.27
2023-02-16T20:22:13.266Z,99525.05
2023-02-16T20:24:41.650Z,99512.11
2023-02-16T20:27:10.439Z,99514.00
2023-02-16T20:29:39.025Z,99515.83
2023-02-16T20:32:08.383Z,99517.26
2023-02-16T20:34:37.951Z,99517.02
2023-02-16T20:37:06.731Z,99501.34
2023-02-16T20:39:35.731Z,99505.20
2023-02-16T20:42:04.414Z,99506.05
2023-02-16T20:44:33.004Z,99501.70
2023-02-16T20:47:01.591Z,99501.52
2023-02-16T20:49:30.377Z,99500.12
2023-02-16T20:51:58.759Z,99499.40
2023-02-16T20:54:27.140Z,99494.36
2023-02-16T20:56:55.628Z,99490.90
2023-02-16T20:59:24.005Z,99483.70
2023-02-16T21:01:53.106Z,99479.45
2023-02-16T21:04:23.232Z,99477.48
2023-02-16T21:06:53.552Z,99472.41
2023-02-16T21:09:22.140Z,99469.79
2023-02-16T21:11:50.725Z,99469.29
2023-02-16T21:14:19.516Z,99466.70
2023-02-16T21:16:48.926Z,99463.06
2023-02-16T21:19:23.316Z,99465.02
2023-02-16T21:21:52.857Z,99460.05
2023-02-16T21:24:21.555Z,99459.51
2023-02-16T21:26:49.933Z,99457.00
2023-02-16T21:29:18.412Z,99459.70
2023-02-16T21:31:46.893Z,99457.11
2023-02-16T21:34:15.933Z,99457.59
2023-02-16T21:36:44.683Z,99453.41
2023-02-16T21:39:13.581Z,99453.98
2023-02-16T21:41:41.894Z,99451.05
2023-02-16T21:44:14.591Z,99448.76
2023-02-16T21:46:43.743Z,99444.09
2023-02-16T21:49:15.193Z,99440.83
2023-02-16T21:51:44.010Z,99436.89
2023-02-16T21:54:14.914Z,99439.18
2023-02-16T21:56:45.179Z,99438.39
2023-02-16T21:59:15.936Z,99434.59
2023-02-16T22:01:48.980Z,99433.95
2023-02-16T22:04:19.664Z,99430.27
2023-02-16T22:06:49.717Z,99427.95
2023-02-16T22:09:20.307Z,99427.14
2023-02-16T22:11:49.365Z,99425.98
2023-02-16T22:14:17.758Z,99421.81
2023-02-16T22:16:48.536Z,99423.46
2023-02-16T22:19:18.106Z,99419.94
2023-02-16T22:21:47.008Z,99417.20
2023-02-16T22:24:17.252Z,99415.86
2023-02-16T22:26:49.699Z,99414.89
2023-02-16T22:29:18.588Z,99413.74
2023-02-16T22:31:48.385Z,99410.52
2023-02-16T22:34:19.242Z,99411.00
2023-02-16T22:36:48.244Z,99408.96
2023-02-16T22:39:17.316Z,99409.46
2023-02-16T22:41:45.623Z,99408.14
2023-02-16T22:44:15.954Z,99401.53
2023-02-16T22:46:44.232Z,99402.05
2023-02-16T22:49:15.495Z,99397.25
2023-02-16T22:51:43.963Z,99392.21
2023-02-16T22:54:17.055Z,99395.52
2023-02-16T22:56:45.442Z,99394.20
2023-02-16T22:59:13.825Z,99393.10
2023-02-16T23:01:42.413Z,99395.07
2023-02-16T23:04:15.337Z,99389.06
2023-02-16T23:06:47.056Z,99385.60
2023-02-16T23:09:20.967Z,99385.66
2023-02-16T23:11:50.064Z,99383.34
2023-02-16T23:14:19.135Z,99379.98
2023-02-16T23:16:52.025Z,99377.60
2023-02-16T23:19:25.038Z,99378.19
2023-02-16T23:21:53.650Z,99382.49
2023-02-16T23:24:23.156Z,99385.17
2023-02-16T23:26:52.548Z,99381.59
2023-02-16T23:29:21.128Z,99382.23
2023-02-16T23:31:51.717Z,99379.84
2023-02-16T23:34:20.585Z,99383.10
2023-02-16T23:36:49.342Z,99385.52
2023-02-16T23:39:18.455Z,99383.08
2023-02-16T23:41:46.819Z,99381.88
2023-02-16T23:44:15.415Z,99375.39
2023-02-16T23:46:43.729Z,99372.22
2023-02-16T23:49:12.126Z,99366.42
2023-02-16T23:51:41.472Z,99367.77
2023-02-16T23:54:11.709Z,99366.95
2023-02-16T23:56:40.113Z,99364.36
2023-02-16T23:59:08.565Z,99360.42
